EDT,Max TemperatureF,Mean TemperatureF,Min TemperatureF,Max Dew PointF,MeanDew PointF,Min DewpointF,Max Humidity, Mean Humidity, Min Humidity, Max Sea Level PressureIn, Mean Sea Level PressureIn, Min Sea Level PressureIn, Max VisibilityMiles, Mean VisibilityMiles, Min VisibilityMiles, Max Wind SpeedMPH, Mean Wind SpeedMPH, Max Gust SpeedMPH,PrecipitationIn, CloudCover, Events, WindDirDegrees
2014-3-1,71,62,54,53,51,42,90,78,35,30.29,30.20,30.11,10,8,5,14,8,,0.00,5,,30
2014-3-2,75,65,55,57,52,43,94,78,33,30.27,30.19,30.07,10,6,1,12,5,,0.00,5,,41
2014-3-3,82,70,57,63,57,53,87,64,41,30.06,29.98,29.91,10,10,10,26,9,34,0.00,3,,231
2014-3-4,71,60,48,63,50,45,89,84,73,30.14,30.08,30.00,10,6,1,21,14,28,0.00,8,Rain,21
2014-3-5,53,50,46,50,46,43,93,87,83,30.13,30.09,30.04,9,6,2,16,11,,0.13,8,Rain,16
2014-3-6,57,52,46,54,51,44,93,89,86,30.08,29.93,29.81,10,5,1,21,14,33,1.11,8,Rain,8
2014-3-7,51,48,44,43,41,39,93,80,66,30.07,29.91,29.78,10,9,4,18,9,22,0.00,7,Rain,304
2014-3-8,69,56,43,46,42,38,86,62,32,30.19,30.13,30.06,10,10,10,10,5,,0.00,1,,319
2014-3-9,77,62,48,53,47,42,80,57,30,30.21,30.14,30.08,10,10,10,9,5,,0.00,1,,244
2014-3-10,81,69,57,52,49,44,72,53,29,30.12,30.04,29.94,10,10,10,10,6,,0.00,2,,226
2014-3-11,82,69,57,56,53,50,84,58,34,29.98,29.90,29.81,10,10,10,10,6,,0.00,3,,194
2014-3-12,82,73,64,62,57,51,84,61,38,29.82,29.73,29.65,10,10,10,25,11,36,0.00,5,Rain,223
2014-3-13,64,57,48,52,29,20,60,36,20,30.25,30.07,29.82,10,10,10,24,17,34,0.00,0,,318
2014-3-14,71,56,43,51,42,32,76,55,37,30.32,30.25,30.17,10,10,10,15,6,,0.00,0,,109
2014-3-15,78,66,55,55,51,48,77,58,36,30.19,30.12,30.03,10,10,8,10,6,,0.00,4,,172
2014-3-16,86,74,64,59,57,54,78,63,34,30.03,29.86,29.71,10,10,10,24,11,32,0.00,6,,182
2014-3-17,66,63,62,62,60,58,94,89,81,29.80,29.74,29.70,10,6,2,14,7,,2.32,8,Rain,87
2014-3-18,63,58,54,60,54,50,94,85,75,30.09,29.88,29.68,10,9,3,17,12,,0.67,8,Rain-Thunderstorm,24
2014-3-19,63,59,55,53,52,50,87,80,67,30.17,30.11,30.06,10,9,6,12,7,,0.00,6,,55
2014-3-20,77,63,51,55,51,47,100,76,36,30.13,30.07,29.99,10,5,0,9,3,,0.00,3,Fog,192
2014-3-21,78,67,57,57,47,33,81,54,22,30.15,30.09,30.04,10,10,10,12,7,,0.00,3,,85
2014-3-22,82,74,66,65,61,57,81,68,44,30.07,30.01,29.94,10,10,10,13,6,,0.00,5,,174
2014-3-23,82,70,60,59,56,53,86,61,39,30.02,29.98,29.91,10,10,8,15,9,23,0.00,3,,266
2014-3-24,68,64,60,57,51,48,72,66,60,30.14,30.05,29.96,10,10,8,21,16,26,0.00,8,,25
2014-3-25,75,65,54,54,42,22,81,53,17,30.09,29.90,29.79,10,10,9,23,13,33,0.00,4,,318
2014-3-26,60,51,42,35,22,15,50,34,18,30.35,30.26,30.12,10,10,10,22,14,32,0.00,2,,10
2014-3-27,70,62,53,55,45,36,73,56,49,30.37,30.30,30.25,10,10,10,17,8,,0.00,8,,107
2014-3-28,81,72,62,66,61,55,90,73,47,30.24,30.12,30.04,10,9,5,15,6,,0.23,8,Rain,143
2014-3-29,79,74,66,68,65,62,90,84,62,30.04,29.92,29.82,10,8,2,17,10,24,0.83,7,Rain-Thunderstorm,202
2014-3-30,75,64,53,61,40,32,84,46,21,30.09,30.00,29.90,10,10,10,18,11,26,0.00,1,,294
2014-3-31,77,62,50,54,41,21,75,48,13,30.18,30.12,30.08,10,10,10,10,6,,0.00,3,,38